sensor_id;sensor_type;location;lat;lon;timestamp;temperature;humidity
14138;DHT22;8199;51.310;9.466;2023-09-12T00:01:06;27.60;53.60
14138;DHT22;8199;51.310;9.466;2023-09-12T00:03:32;27.70;53.60
14138;DHT22;8199;51.310;9.466;2023-09-12T00:06:00;27.70;53.60
14138;DHT22;8199;51.310;9.466;2023-09-12T00:08:26;27.60;53.80
14138;DHT22;8199;51.310;9.466;2023-09-12T00:11:02;27.60;53.80
14138;DHT22;8199;51.310;9.466;2023-09-12T00:13:28;27.60;53.70
14138;DHT22;8199;51.310;9.466;2023-09-12T00:15:54;27.60;54.00
14138;DHT22;8199;51.310;9.466;2023-09-12T00:18:19;27.60;54.10
14138;DHT22;8199;51.310;9.466;2023-09-12T00:20:45;27.60;54.10
14138;DHT22;8199;51.310;9.466;2023-09-12T00:23:10;27.60;54.00
14138;DHT22;8199;51.310;9.466;2023-09-12T00:25:36;27.70;53.70
14138;DHT22;8199;51.310;9.466;2023-09-12T00:28:02;27.80;53.60
14138;DHT22;8199;51.310;9.466;2023-09-12T00:30:27;27.70;53.70
14138;DHT22;8199;51.310;9.466;2023-09-12T00:32:53;27.70;53.60
14138;DHT22;8199;51.310;9.466;2023-09-12T00:35:18;27.60;53.80
14138;DHT22;8199;51.310;9.466;2023-09-12T00:37:44;27.70;53.80
14138;DHT22;8199;51.310;9.466;2023-09-12T00:40:10;27.60;53.70
14138;DHT22;8199;51.310;9.466;2023-09-12T00:42:35;27.50;53.70
14138;DHT22;8199;51.310;9.466;2023-09-12T00:45:01;27.60;53.60
14138;DHT22;8199;51.310;9.466;2023-09-12T00:47:27;27.50;53.80
14138;DHT22;8199;51.310;9.466;2023-09-12T00:49:55;27.50;53.70
14138;DHT22;8199;51.310;9.466;2023-09-12T00:52:26;27.50;53.70
14138;DHT22;8199;51.310;9.466;2023-09-12T00:54:52;27.60;53.60
14138;DHT22;8199;51.310;9.466;2023-09-12T00:57:19;27.60;53.60
14138;DHT22;8199;51.310;9.466;2023-09-12T00:59:46;27.50;53.70
14138;DHT22;8199;51.310;9.466;2023-09-12T01:02:12;27.60;53.60
14138;DHT22;8199;51.310;9.466;2023-09-12T01:04:38;27.40;53.70
14138;DHT22;8199;51.310;9.466;2023-09-12T01:07:04;27.50;53.70
14138;DHT22;8199;51.310;9.466;2023-09-12T01:09:30;27.50;53.70
14138;DHT22;8199;51.310;9.466;2023-09-12T01:11:56;27.40;53.90
14138;DHT22;8199;51.310;9.466;2023-09-12T01:14:21;27.50;53.70
14138;DHT22;8199;51.310;9.466;2023-09-12T01:16:47;27.60;53.50
14138;DHT22;8199;51.310;9.466;2023-09-12T01:19:14;27.70;53.30
14138;DHT22;8199;51.310;9.466;2023-09-12T01:27:28;27.30;54.00
14138;DHT22;8199;51.310;9.466;2023-09-12T01:29:57;27.30;54.00
14138;DHT22;8199;51.310;9.466;2023-09-12T01:32:23;27.30;54.10
14138;DHT22;8199;51.310;9.466;2023-09-12T01:34:49;27.50;53.60
14138;DHT22;8199;51.310;9.466;2023-09-12T01:37:15;27.40;53.60
14138;DHT22;8199;51.310;9.466;2023-09-12T01:39:41;27.60;53.50
14138;DHT22;8199;51.310;9.466;2023-09-12T01:42:09;27.60;53.40
14138;DHT22;8199;51.310;9.466;2023-09-12T01:44:37;27.50;53.50
14138;DHT22;8199;51.310;9.466;2023-09-12T01:47:05;27.60;53.40
14138;DHT22;8199;51.310;9.466;2023-09-12T01:49:32;27.70;53.10
14138;DHT22;8199;51.310;9.466;2023-09-12T01:51:58;27.70;53.00
14138;DHT22;8199;51.310;9.466;2023-09-12T01:54:26;27.60;53.20
14138;DHT22;8199;51.310;9.466;2023-09-12T01:56:51;27.60;53.40
14138;DHT22;8199;51.310;9.466;2023-09-12T01:59:18;27.60;53.20
14138;DHT22;8199;51.310;9.466;2023-09-12T02:01:44;27.60;53.30
14138;DHT22;8199;51.310;9.466;2023-09-12T02:04:09;27.40;53.30
14138;DHT22;8199;51.310;9.466;2023-09-12T02:06:35;27.40;53.40
14138;DHT22;8199;51.310;9.466;2023-09-12T02:09:01;27.40;53.30
14138;DHT22;8199;51.310;9.466;2023-09-12T02:11:27;27.50;53.20
14138;DHT22;8199;51.310;9.466;2023-09-12T02:13:52;27.30;53.40
14138;DHT22;8199;51.310;9.466;2023-09-12T02:16:18;27.40;53.30
14138;DHT22;8199;51.310;9.466;2023-09-12T02:18:44;27.30;53.40
14138;DHT22;8199;51.310;9.466;2023-09-12T02:21:09;27.30;53.40
14138;DHT22;8199;51.310;9.466;2023-09-12T02:23:35;27.30;53.20
14138;DHT22;8199;51.310;9.466;2023-09-12T02:26:00;27.30;53.40
14138;DHT22;8199;51.310;9.466;2023-09-12T02:28:26;27.30;53.40
14138;DHT22;8199;51.310;9.466;2023-09-12T02:30:51;27.30;53.30
14138;DHT22;8199;51.310;9.466;2023-09-12T02:33:17;27.30;53.20
14138;DHT22;8199;51.310;9.466;2023-09-12T02:35:43;27.20;53.30
14138;DHT22;8199;51.310;9.466;2023-09-12T02:38:08;27.20;53.30
14138;DHT22;8199;51.310;9.466;2023-09-12T02:40:34;27.20;53.20
14138;DHT22;8199;51.310;9.466;2023-09-12T02:43:00;27.20;53.30
14138;DHT22;8199;51.310;9.466;2023-09-12T02:45:25;27.30;53.10
14138;DHT22;8199;51.310;9.466;2023-09-12T02:47:51;27.30;53.00
14138;DHT22;8199;51.310;9.466;2023-09-12T02:50:16;27.30;52.90
14138;DHT22;8199;51.310;9.466;2023-09-12T02:52:42;27.30;53.50
14138;DHT22;8199;51.310;9.466;2023-09-12T02:55:07;27.30;53.00
14138;DHT22;8199;51.310;9.466;2023-09-12T02:57:33;27.40;52.80
14138;DHT22;8199;51.310;9.466;2023-09-12T02:59:58;27.20;53.10
14138;DHT22;8199;51.310;9.466;2023-09-12T03:02:24;27.20;53.20
14138;DHT22;8199;51.310;9.466;2023-09-12T03:04:50;27.30;52.90
14138;DHT22;8199;51.310;9.466;2023-09-12T03:07:15;27.30;52.90
14138;DHT22;8199;51.310;9.466;2023-09-12T03:09:41;27.40;52.70
14138;DHT22;8199;51.310;9.466;2023-09-12T03:12:07;27.30;52.80
14138;DHT22;8199;51.310;9.466;2023-09-12T03:14:32;27.20;53.00
14138;DHT22;8199;51.310;9.466;2023-09-12T03:16:58;27.10;53.30
14138;DHT22;8199;51.310;9.466;2023-09-12T03:19:24;27.20;53.00
14138;DHT22;8199;51.310;9.466;2023-09-12T03:21:49;27.30;52.70
14138;DHT22;8199;51.310;9.466;2023-09-12T03:24:15;27.40;52.50
14138;DHT22;8199;51.310;9.466;2023-09-12T03:26:43;27.40;52.60
14138;DHT22;8199;51.310;9.466;2023-09-12T03:29:09;27.40;52.50
14138;DHT22;8199;51.310;9.466;2023-09-12T03:31:35;27.30;52.70
14138;DHT22;8199;51.310;9.466;2023-09-12T03:34:01;27.10;53.00
14138;DHT22;8199;51.310;9.466;2023-09-12T03:36:26;27.20;53.00
14138;DHT22;8199;51.310;9.466;2023-09-12T03:38:52;27.30;52.70
14138;DHT22;8199;51.310;9.466;2023-09-12T03:41:17;27.20;52.80
14138;DHT22;8199;51.310;9.466;2023-09-12T03:43:43;27.30;52.70
14138;DHT22;8199;51.310;9.466;2023-09-12T03:46:08;27.20;52.60
14138;DHT22;8199;51.310;9.466;2023-09-12T03:48:34;27.30;52.60
14138;DHT22;8199;51.310;9.466;2023-09-12T03:51:02;27.10;53.00
14138;DHT22;8199;51.310;9.466;2023-09-12T03:53:29;27.20;52.90
14138;DHT22;8199;51.310;9.466;2023-09-12T03:55:54;27.20;52.70
14138;DHT22;8199;51.310;9.466;2023-09-12T03:58:20;27.20;52.70
14138;DHT22;8199;51.310;9.466;2023-09-12T04:00:45;27.20;52.70
14138;DHT22;8199;51.310;9.466;2023-09-12T04:03:11;27.10;53.20
14138;DHT22;8199;51.310;9.466;2023-09-12T04:05:36;27.10;53.00
14138;DHT22;8199;51.310;9.466;2023-09-12T04:08:02;27.20;52.70
14138;DHT22;8199;51.310;9.466;2023-09-12T04:10:28;27.10;52.70
14138;DHT22;8199;51.310;9.466;2023-09-12T04:12:53;27.00;52.90
14138;DHT22;8199;51.310;9.466;2023-09-12T04:15:19;27.10;52.70
14138;DHT22;8199;51.310;9.466;2023-09-12T04:17:44;27.00;52.80
14138;DHT22;8199;51.310;9.466;2023-09-12T04:20:10;27.00;52.90
14138;DHT22;8199;51.310;9.466;2023-09-12T04:22:39;27.00;52.90
14138;DHT22;8199;51.310;9.466;2023-09-12T04:25:06;27.10;52.80
14138;DHT22;8199;51.310;9.466;2023-09-12T04:27:31;27.10;52.70
14138;DHT22;8199;51.310;9.466;2023-09-12T04:29:57;27.10;52.60
14138;DHT22;8199;51.310;9.466;2023-09-12T04:32:22;27.00;52.70
14138;DHT22;8199;51.310;9.466;2023-09-12T04:34:49;27.00;52.80
14138;DHT22;8199;51.310;9.466;2023-09-12T04:37:15;27.00;53.00
14138;DHT22;8199;51.310;9.466;2023-09-12T04:39:40;27.00;53.00
14138;DHT22;8199;51.310;9.466;2023-09-12T04:42:06;27.00;53.00
14138;DHT22;8199;51.310;9.466;2023-09-12T04:44:39;27.20;53.00
14138;DHT22;8199;51.310;9.466;2023-09-12T04:47:05;27.20;52.90
14138;DHT22;8199;51.310;9.466;2023-09-12T04:49:30;27.20;53.00
14138;DHT22;8199;51.310;9.466;2023-09-12T04:51:56;27.30;53.10
14138;DHT22;8199;51.310;9.466;2023-09-12T04:54:21;27.30;53.20
14138;DHT22;8199;51.310;9.466;2023-09-12T04:56:47;27.30;53.70
14138;DHT22;8199;51.310;9.466;2023-09-12T04:59:13;27.30;53.20
14138;DHT22;8199;51.310;9.466;2023-09-12T05:01:38;27.30;53.30
14138;DHT22;8199;51.310;9.466;2023-09-12T05:04:04;27.30;53.20
14138;DHT22;8199;51.310;9.466;2023-09-12T05:06:30;27.30;53.10
14138;DHT22;8199;51.310;9.466;2023-09-12T05:08:55;27.30;53.40
14138;DHT22;8199;51.310;9.466;2023-09-12T05:11:22;27.30;53.40
14138;DHT22;8199;51.310;9.466;2023-09-12T05:13:49;27.30;53.30
14138;DHT22;8199;51.310;9.466;2023-09-12T05:16:14;27.30;53.30
14138;DHT22;8199;51.310;9.466;2023-09-12T05:18:40;27.30;53.20
14138;DHT22;8199;51.310;9.466;2023-09-12T05:21:06;27.30;53.20
14138;DHT22;8199;51.310;9.466;2023-09-12T05:23:31;27.30;53.30
14138;DHT22;8199;51.310;9.466;2023-09-12T05:25:57;27.30;53.30
14138;DHT22;8199;51.310;9.466;2023-09-12T05:28:23;27.40;53.30
14138;DHT22;8199;51.310;9.466;2023-09-12T05:30:48;27.40;53.30
14138;DHT22;8199;51.310;9.466;2023-09-12T05:33:15;27.40;53.20
14138;DHT22;8199;51.310;9.466;2023-09-12T05:35:41;27.40;53.30
14138;DHT22;8199;51.310;9.466;2023-09-12T05:38:06;27.40;53.40
14138;DHT22;8199;51.310;9.466;2023-09-12T05:40:32;27.40;53.40
14138;DHT22;8199;51.310;9.466;2023-09-12T05:42:57;27.40;53.40
14138;DHT22;8199;51.310;9.466;2023-09-12T05:45:23;27.40;53.40
14138;DHT22;8199;51.310;9.466;2023-09-12T05:47:49;27.40;53.50
14138;DHT22;8199;51.310;9.466;2023-09-12T05:50:16;27.40;53.60
14138;DHT22;8199;51.310;9.466;2023-09-12T05:52:41;27.40;53.50
14138;DHT22;8199;51.310;9.466;2023-09-12T05:55:08;27.40;53.50
14138;DHT22;8199;51.310;9.466;2023-09-12T05:57:34;27.40;53.50
14138;DHT22;8199;51.310;9.466;2023-09-12T06:00:00;27.40;53.60
14138;DHT22;8199;51.310;9.466;2023-09-12T06:02:27;27.40;53.70
14138;DHT22;8199;51.310;9.466;2023-09-12T06:04:52;27.50;53.70
14138;DHT22;8199;51.310;9.466;2023-09-12T06:07:18;27.40;53.70
14138;DHT22;8199;51.310;9.466;2023-09-12T06:09:44;27.60;53.60
14138;DHT22;8199;51.310;9.466;2023-09-12T06:12:10;27.50;53.70
14138;DHT22;8199;51.310;9.466;2023-09-12T06:14:35;27.50;53.90
14138;DHT22;8199;51.310;9.466;2023-09-12T06:17:01;27.50;53.90
14138;DHT22;8199;51.310;9.466;2023-09-12T06:19:27;27.40;54.30
14138;DHT22;8199;51.310;9.466;2023-09-12T06:21:52;27.40;54.40
14138;DHT22;8199;51.310;9.466;2023-09-12T06:24:21;27.40;54.50
14138;DHT22;8199;51.310;9.466;2023-09-12T06:26:47;27.40;54.40
14138;DHT22;8199;51.310;9.466;2023-09-12T06:29:13;27.40;54.50
14138;DHT22;8199;51.310;9.466;2023-09-12T06:31:39;27.30;54.50
14138;DHT22;8199;51.310;9.466;2023-09-12T06:34:07;27.40;54.60
14138;DHT22;8199;51.310;9.466;2023-09-12T06:36:32;27.40;54.70
14138;DHT22;8199;51.310;9.466;2023-09-12T06:38:58;27.30;54.60
14138;DHT22;8199;51.310;9.466;2023-09-12T06:41:25;27.40;54.70
14138;DHT22;8199;51.310;9.466;2023-09-12T06:43:50;27.30;54.60
14138;DHT22;8199;51.310;9.466;2023-09-12T06:46:16;27.30;54.70
14138;DHT22;8199;51.310;9.466;2023-09-12T06:48:45;27.30;54.70
14138;DHT22;8199;51.310;9.466;2023-09-12T06:51:11;27.30;54.70
14138;DHT22;8199;51.310;9.466;2023-09-12T06:53:36;27.30;54.70
14138;DHT22;8199;51.310;9.466;2023-09-12T06:56:03;27.30;54.70
14138;DHT22;8199;51.310;9.466;2023-09-12T06:58:29;27.30;54.70
14138;DHT22;8199;51.310;9.466;2023-09-12T07:00:55;27.40;54.70
14138;DHT22;8199;51.310;9.466;2023-09-12T07:03:20;27.30;54.70
14138;DHT22;8199;51.310;9.466;2023-09-12T07:05:46;27.40;54.70
14138;DHT22;8199;51.310;9.466;2023-09-12T07:08:12;27.40;54.80
14138;DHT22;8199;51.310;9.466;2023-09-12T07:10:43;27.50;55.20
14138;DHT22;8199;51.310;9.466;2023-09-12T07:13:08;27.50;55.00
14138;DHT22;8199;51.310;9.466;2023-09-12T07:15:36;27.50;55.00
14138;DHT22;8199;51.310;9.466;2023-09-12T07:18:01;27.50;55.00
14138;DHT22;8199;51.310;9.466;2023-09-12T07:20:27;27.50;54.80
14138;DHT22;8199;51.310;9.466;2023-09-12T07:22:53;27.50;54.80
14138;DHT22;8199;51.310;9.466;2023-09-12T07:25:19;27.50;54.80
14138;DHT22;8199;51.310;9.466;2023-09-12T07:27:46;27.50;54.80
14138;DHT22;8199;51.310;9.466;2023-09-12T07:30:12;27.50;54.80
14138;DHT22;8199;51.310;9.466;2023-09-12T07:32:37;27.60;54.70
14138;DHT22;8199;51.310;9.466;2023-09-12T07:35:03;27.60;54.80
14138;DHT22;8199;51.310;9.466;2023-09-12T07:37:29;27.60;54.90
14138;DHT22;8199;51.310;9.466;2023-09-12T07:39:54;27.60;54.70
14138;DHT22;8199;51.310;9.466;2023-09-12T07:42:23;27.60;54.80
14138;DHT22;8199;51.310;9.466;2023-09-12T07:44:49;27.60;54.80
14138;DHT22;8199;51.310;9.466;2023-09-12T07:47:15;27.60;54.70
14138;DHT22;8199;51.310;9.466;2023-09-12T07:49:41;27.60;54.60
14138;DHT22;8199;51.310;9.466;2023-09-12T07:52:07;27.60;54.60
14138;DHT22;8199;51.310;9.466;2023-09-12T07:54:32;27.60;54.70
14138;DHT22;8199;51.310;9.466;2023-09-12T07:56:58;27.60;54.60
14138;DHT22;8199;51.310;9.466;2023-09-12T07:59:24;27.70;54.60
14138;DHT22;8199;51.310;9.466;2023-09-12T08:01:50;27.70;54.70
14138;DHT22;8199;51.310;9.466;2023-09-12T08:04:16;27.60;54.60
14138;DHT22;8199;51.310;9.466;2023-09-12T08:06:42;27.60;54.60
14138;DHT22;8199;51.310;9.466;2023-09-12T08:09:09;27.70;54.60
14138;DHT22;8199;51.310;9.466;2023-09-12T08:11:35;27.70;54.50
14138;DHT22;8199;51.310;9.466;2023-09-12T08:14:00;27.70;54.40
14138;DHT22;8199;51.310;9.466;2023-09-12T08:16:26;27.70;54.50
14138;DHT22;8199;51.310;9.466;2023-09-12T08:18:52;27.70;54.50
14138;DHT22;8199;51.310;9.466;2023-09-12T08:21:17;27.70;54.50
14138;DHT22;8199;51.310;9.466;2023-09-12T08:23:43;27.70;54.40
14138;DHT22;8199;51.310;9.466;2023-09-12T08:26:09;27.70;54.50
14138;DHT22;8199;51.310;9.466;2023-09-12T08:28:35;27.70;54.50
14138;DHT22;8199;51.310;9.466;2023-09-12T08:31:00;27.70;54.40
14138;DHT22;8199;51.310;9.466;2023-09-12T08:33:26;27.70;54.40
14138;DHT22;8199;51.310;9.466;2023-09-12T08:35:51;27.70;54.40
14138;DHT22;8199;51.310;9.466;2023-09-12T08:38:17;27.70;54.40
14138;DHT22;8199;51.310;9.466;2023-09-12T08:40:49;27.70;54.30
14138;DHT22;8199;51.310;9.466;2023-09-12T08:43:16;27.70;54.30
14138;DHT22;8199;51.310;9.466;2023-09-12T08:45:42;27.70;54.30
14138;DHT22;8199;51.310;9.466;2023-09-12T08:48:11;27.70;54.30
14138;DHT22;8199;51.310;9.466;2023-09-12T08:50:36;27.80;54.30
14138;DHT22;8199;51.310;9.466;2023-09-12T08:53:03;27.80;54.30
14138;DHT22;8199;51.310;9.466;2023-09-12T08:55:29;27.70;54.20
14138;DHT22;8199;51.310;9.466;2023-09-12T08:57:55;27.80;54.20
14138;DHT22;8199;51.310;9.466;2023-09-12T09:00:22;27.80;54.20
14138;DHT22;8199;51.310;9.466;2023-09-12T09:02:48;27.80;54.00
14138;DHT22;8199;51.310;9.466;2023-09-12T09:05:14;27.90;54.10
14138;DHT22;8199;51.310;9.466;2023-09-12T09:07:42;27.80;54.10
14138;DHT22;8199;51.310;9.466;2023-09-12T09:10:19;27.90;54.00
14138;DHT22;8199;51.310;9.466;2023-09-12T09:12:46;27.90;54.10
14138;DHT22;8199;51.310;9.466;2023-09-12T09:17:50;27.80;54.00
14138;DHT22;8199;51.310;9.466;2023-09-12T09:20:45;27.80;54.00
14138;DHT22;8199;51.310;9.466;2023-09-12T09:23:16;27.80;54.00
14138;DHT22;8199;51.310;9.466;2023-09-12T09:25:43;27.80;54.00
14138;DHT22;8199;51.310;9.466;2023-09-12T09:28:20;27.80;53.90
14138;DHT22;8199;51.310;9.466;2023-09-12T09:30:48;27.80;53.90
14138;DHT22;8199;51.310;9.466;2023-09-12T09:33:14;27.80;53.90
14138;DHT22;8199;51.310;9.466;2023-09-12T09:35:45;27.80;53.90
14138;DHT22;8199;51.310;9.466;2023-09-12T09:38:11;27.80;54.00
14138;DHT22;8199;51.310;9.466;2023-09-12T09:40:44;27.80;53.90
14138;DHT22;8199;51.310;9.466;2023-09-12T09:43:10;27.80;53.90
14138;DHT22;8199;51.310;9.466;2023-09-12T09:45:43;27.80;53.90
14138;DHT22;8199;51.310;9.466;2023-09-12T09:48:10;27.80;53.90
14138;DHT22;8199;51.310;9.466;2023-09-12T09:50:42;27.80;53.90
14138;DHT22;8199;51.310;9.466;2023-09-12T09:53:08;27.90;53.90
14138;DHT22;8199;51.310;9.466;2023-09-12T09:55:35;27.90;53.90
14138;DHT22;8199;51.310;9.466;2023-09-12T09:58:01;27.90;53.90
14138;DHT22;8199;51.310;9.466;2023-09-12T10:00:29;27.90;53.90
14138;DHT22;8199;51.310;9.466;2023-09-12T10:02:55;27.90;53.90
14138;DHT22;8199;51.310;9.466;2023-09-12T10:05:22;27.90;53.90
14138;DHT22;8199;51.310;9.466;2023-09-12T10:07:49;27.90;53.90
14138;DHT22;8199;51.310;9.466;2023-09-12T10:10:18;27.90;53.90
14138;DHT22;8199;51.310;9.466;2023-09-12T10:12:49;28.00;53.90
14138;DHT22;8199;51.310;9.466;2023-09-12T10:15:18;27.90;53.90
14138;DHT22;8199;51.310;9.466;2023-09-12T10:17:47;27.90;53.90
14138;DHT22;8199;51.310;9.466;2023-09-12T10:20:20;27.90;53.90
14138;DHT22;8199;51.310;9.466;2023-09-12T10:23:30;27.90;53.90
14138;DHT22;8199;51.310;9.466;2023-09-12T10:25:57;27.90;53.90
14138;DHT22;8199;51.310;9.466;2023-09-12T10:28:24;27.90;53.80
14138;DHT22;8199;51.310;9.466;2023-09-12T10:30:50;28.00;53.80
14138;DHT22;8199;51.310;9.466;2023-09-12T10:33:16;28.00;53.80
14138;DHT22;8199;51.310;9.466;2023-09-12T10:35:43;28.00;53.70
14138;DHT22;8199;51.310;9.466;2023-09-12T10:38:10;28.00;53.80
14138;DHT22;8199;51.310;9.466;2023-09-12T10:40:39;28.00;53.70
14138;DHT22;8199;51.310;9.466;2023-09-12T10:43:06;28.00;53.70
14138;DHT22;8199;51.310;9.466;2023-09-12T10:45:35;28.10;53.70
14138;DHT22;8199;51.310;9.466;2023-09-12T10:48:02;28.10;53.70
14138;DHT22;8199;51.310;9.466;2023-09-12T10:50:28;28.10;53.60
14138;DHT22;8199;51.310;9.466;2023-09-12T10:52:54;28.10;54.10
14138;DHT22;8199;51.310;9.466;2023-09-12T10:55:20;28.10;53.60
14138;DHT22;8199;51.310;9.466;2023-09-12T10:58:21;28.10;53.60
14138;DHT22;8199;51.310;9.466;2023-09-12T11:01:22;28.10;53.60
14138;DHT22;8199;51.310;9.466;2023-09-12T11:03:48;28.10;53.60
14138;DHT22;8199;51.310;9.466;2023-09-12T11:06:29;28.20;53.60
14138;DHT22;8199;51.310;9.466;2023-09-12T11:11:40;28.10;53.60
14138;DHT22;8199;51.310;9.466;2023-09-12T11:14:07;28.10;53.60
14138;DHT22;8199;51.310;9.466;2023-09-12T11:16:33;28.10;53.60
14138;DHT22;8199;51.310;9.466;2023-09-12T11:19:20;28.20;53.60
14138;DHT22;8199;51.310;9.466;2023-09-12T11:21:50;28.10;53.60
14138;DHT22;8199;51.310;9.466;2023-09-12T11:24:17;28.20;53.60
14138;DHT22;8199;51.310;9.466;2023-09-12T11:27:02;28.20;53.70
14138;DHT22;8199;51.310;9.466;2023-09-12T11:29:38;28.10;53.60
14138;DHT22;8199;51.310;9.466;2023-09-12T11:32:04;28.10;53.60
14138;DHT22;8199;51.310;9.466;2023-09-12T11:37:05;28.20;53.70
14138;DHT22;8199;51.310;9.466;2023-09-12T11:39:35;28.20;53.70
14138;DHT22;8199;51.310;9.466;2023-09-12T11:42:03;28.20;53.70
14138;DHT22;8199;51.310;9.466;2023-09-12T11:44:30;28.20;53.70
14138;DHT22;8199;51.310;9.466;2023-09-12T11:47:01;28.20;53.70
14138;DHT22;8199;51.310;9.466;2023-09-12T11:49:35;28.20;53.70
14138;DHT22;8199;51.310;9.466;2023-09-12T11:52:02;28.20;53.70
14138;DHT22;8199;51.310;9.466;2023-09-12T11:54:29;28.20;53.60
14138;DHT22;8199;51.310;9.466;2023-09-12T11:56:57;28.20;53.60
14138;DHT22;8199;51.310;9.466;2023-09-12T11:59:25;28.20;53.60
14138;DHT22;8199;51.310;9.466;2023-09-12T12:01:52;28.20;53.50
14138;DHT22;8199;51.310;9.466;2023-09-12T12:04:20;28.20;53.50
14138;DHT22;8199;51.310;9.466;2023-09-12T12:06:47;28.30;53.50
14138;DHT22;8199;51.310;9.466;2023-09-12T12:09:13;28.20;53.60
14138;DHT22;8199;51.310;9.466;2023-09-12T12:11:39;28.20;53.60
14138;DHT22;8199;51.310;9.466;2023-09-12T12:14:14;28.20;53.50
14138;DHT22;8199;51.310;9.466;2023-09-12T12:16:41;28.20;53.70
14138;DHT22;8199;51.310;9.466;2023-09-12T12:19:08;28.20;53.70
14138;DHT22;8199;51.310;9.466;2023-09-12T12:21:34;28.20;53.70
14138;DHT22;8199;51.310;9.466;2023-09-12T12:24:01;28.20;53.70
14138;DHT22;8199;51.310;9.466;2023-09-12T12:26:27;28.20;53.70
14138;DHT22;8199;51.310;9.466;2023-09-12T12:28:52;28.20;53.80
14138;DHT22;8199;51.310;9.466;2023-09-12T12:31:19;28.20;53.80
14138;DHT22;8199;51.310;9.466;2023-09-12T12:33:49;28.20;53.70
14138;DHT22;8199;51.310;9.466;2023-09-12T12:36:14;28.20;53.70
14138;DHT22;8199;51.310;9.466;2023-09-12T12:38:40;28.20;53.70
14138;DHT22;8199;51.310;9.466;2023-09-12T12:41:09;28.20;53.70
14138;DHT22;8199;51.310;9.466;2023-09-12T12:43:34;28.20;53.70
14138;DHT22;8199;51.310;9.466;2023-09-12T12:46:01;28.20;53.70
14138;DHT22;8199;51.310;9.466;2023-09-12T12:48:31;28.20;53.70
14138;DHT22;8199;51.310;9.466;2023-09-12T12:50:57;28.20;53.70
14138;DHT22;8199;51.310;9.466;2023-09-12T12:53:43;28.20;53.60
14138;DHT22;8199;51.310;9.466;2023-09-12T12:56:14;28.20;53.70
14138;DHT22;8199;51.310;9.466;2023-09-12T12:58:48;28.20;53.70
14138;DHT22;8199;51.310;9.466;2023-09-12T13:01:15;28.20;53.70
14138;DHT22;8199;51.310;9.466;2023-09-12T13:03:41;28.20;53.60
14138;DHT22;8199;51.310;9.466;2023-09-12T13:06:07;28.20;53.60
14138;DHT22;8199;51.310;9.466;2023-09-12T13:08:33;28.20;53.60
14138;DHT22;8199;51.310;9.466;2023-09-12T13:11:00;28.20;53.60
14138;DHT22;8199;51.310;9.466;2023-09-12T13:13:27;28.20;53.60
14138;DHT22;8199;51.310;9.466;2023-09-12T13:15:52;28.20;53.60
14138;DHT22;8199;51.310;9.466;2023-09-12T13:18:18;28.20;53.60
14138;DHT22;8199;51.310;9.466;2023-09-12T13:20:43;28.20;53.60
14138;DHT22;8199;51.310;9.466;2023-09-12T13:23:09;28.30;53.70
14138;DHT22;8199;51.310;9.466;2023-09-12T13:25:35;28.30;53.70
14138;DHT22;8199;51.310;9.466;2023-09-12T13:28:01;28.30;53.80
14138;DHT22;8199;51.310;9.466;2023-09-12T13:30:26;28.30;53.80
14138;DHT22;8199;51.310;9.466;2023-09-12T13:32:52;28.30;53.80
14138;DHT22;8199;51.310;9.466;2023-09-12T13:35:17;28.30;53.70
14138;DHT22;8199;51.310;9.466;2023-09-12T13:37:43;28.20;53.70
14138;DHT22;8199;51.310;9.466;2023-09-12T13:40:09;28.20;53.70
14138;DHT22;8199;51.310;9.466;2023-09-12T13:42:34;28.20;53.60
14138;DHT22;8199;51.310;9.466;2023-09-12T13:45:00;28.20;53.70
14138;DHT22;8199;51.310;9.466;2023-09-12T13:47:25;28.20;53.80
14138;DHT22;8199;51.310;9.466;2023-09-12T13:49:51;28.30;53.80
14138;DHT22;8199;51.310;9.466;2023-09-12T13:52:22;28.40;54.30
14138;DHT22;8199;51.310;9.466;2023-09-12T13:54:47;28.50;54.60
14138;DHT22;8199;51.310;9.466;2023-09-12T13:57:13;28.40;54.50
14138;DHT22;8199;51.310;9.466;2023-09-12T13:59:39;28.40;54.50
14138;DHT22;8199;51.310;9.466;2023-09-12T14:02:05;28.40;54.40
14138;DHT22;8199;51.310;9.466;2023-09-12T14:04:30;28.50;54.30
14138;DHT22;8199;51.310;9.466;2023-09-12T14:06:56;28.60;54.20
14138;DHT22;8199;51.310;9.466;2023-09-12T14:09:21;28.50;54.20
14138;DHT22;8199;51.310;9.466;2023-09-12T14:11:47;28.50;54.20
14138;DHT22;8199;51.310;9.466;2023-09-12T14:14:13;28.50;54.20
14138;DHT22;8199;51.310;9.466;2023-09-12T14:16:38;28.50;54.30
14138;DHT22;8199;51.310;9.466;2023-09-12T14:19:04;28.50;54.30
14138;DHT22;8199;51.310;9.466;2023-09-12T14:21:29;28.50;54.30
14138;DHT22;8199;51.310;9.466;2023-09-12T14:23:55;28.60;54.30
14138;DHT22;8199;51.310;9.466;2023-09-12T14:26:21;28.50;54.30
14138;DHT22;8199;51.310;9.466;2023-09-12T14:28:46;28.50;54.20
14138;DHT22;8199;51.310;9.466;2023-09-12T14:31:12;28.60;54.30
14138;DHT22;8199;51.310;9.466;2023-09-12T14:33:42;28.60;54.30
14138;DHT22;8199;51.310;9.466;2023-09-12T14:36:08;28.60;54.20
14138;DHT22;8199;51.310;9.466;2023-09-12T14:38:35;28.60;54.10
14138;DHT22;8199;51.310;9.466;2023-09-12T14:41:00;28.60;54.10
14138;DHT22;8199;51.310;9.466;2023-09-12T14:43:26;28.60;54.10
14138;DHT22;8199;51.310;9.466;2023-09-12T14:45:54;28.70;54.20
14138;DHT22;8199;51.310;9.466;2023-09-12T14:48:20;28.70;54.20
14138;DHT22;8199;51.310;9.466;2023-09-12T14:50:46;28.60;54.20
14138;DHT22;8199;51.310;9.466;2023-09-12T14:53:15;28.60;54.20
14138;DHT22;8199;51.310;9.466;2023-09-12T14:55:41;28.60;54.20
14138;DHT22;8199;51.310;9.466;2023-09-12T14:58:07;28.70;54.30
14138;DHT22;8199;51.310;9.466;2023-09-12T15:00:33;28.70;54.70
14138;DHT22;8199;51.310;9.466;2023-09-12T15:03:00;28.70;54.10
14138;DHT22;8199;51.310;9.466;2023-09-12T15:05:26;28.70;54.10
14138;DHT22;8199;51.310;9.466;2023-09-12T15:07:52;28.70;54.10
14138;DHT22;8199;51.310;9.466;2023-09-12T15:10:19;28.70;54.10
14138;DHT22;8199;51.310;9.466;2023-09-12T15:12:44;28.80;54.10
14138;DHT22;8199;51.310;9.466;2023-09-12T15:15:10;28.80;54.10
14138;DHT22;8199;51.310;9.466;2023-09-12T15:17:36;28.70;54.10
14138;DHT22;8199;51.310;9.466;2023-09-12T15:20:02;28.70;54.10
14138;DHT22;8199;51.310;9.466;2023-09-12T15:22:30;28.70;54.10
14138;DHT22;8199;51.310;9.466;2023-09-12T15:24:56;28.70;54.20
14138;DHT22;8199;51.310;9.466;2023-09-12T15:27:22;28.70;54.20
14138;DHT22;8199;51.310;9.466;2023-09-12T15:29:47;28.80;54.40
14138;DHT22;8199;51.310;9.466;2023-09-12T15:32:13;28.70;54.40
14138;DHT22;8199;51.310;9.466;2023-09-12T15:34:38;28.70;54.70
14138;DHT22;8199;51.310;9.466;2023-09-12T15:37:10;28.80;54.60
14138;DHT22;8199;51.310;9.466;2023-09-12T15:39:36;28.80;54.70
14138;DHT22;8199;51.310;9.466;2023-09-12T15:42:02;28.70;54.70
14138;DHT22;8199;51.310;9.466;2023-09-12T15:44:28;28.60;54.60
14138;DHT22;8199;51.310;9.466;2023-09-12T15:46:54;28.60;54.60
14138;DHT22;8199;51.310;9.466;2023-09-12T15:49:20;28.60;54.60
14138;DHT22;8199;51.310;9.466;2023-09-12T15:51:46;28.60;54.50
14138;DHT22;8199;51.310;9.466;2023-09-12T15:54:11;28.60;54.50
14138;DHT22;8199;51.310;9.466;2023-09-12T15:56:37;28.60;54.50